createdAt,value
2023-05-06T00:01:57.305Z,2.65
2023-05-06T00:04:24.058Z,2.78
2023-05-06T00:06:51.485Z,2.70
2023-05-06T00:09:18.040Z,2.47
2023-05-06T00:11:45.834Z,2.40
2023-05-06T00:14:12.462Z,2.63
2023-05-06T00:16:39.114Z,2.20
2023-05-06T00:19:06.183Z,2.72
2023-05-06T00:21:32.742Z,2.00
2023-05-06T00:23:59.372Z,2.15
2023-05-06T00:26:25.989Z,2.25
2023-05-06T00:28:52.447Z,2.55
2023-05-06T00:31:18.977Z,2.67
2023-05-06T00:33:45.609Z,2.57
2023-05-06T00:36:12.107Z,2.78
2023-05-06T00:38:38.613Z,3.75
2023-05-06T00:41:05.493Z,3.10
2023-05-06T00:43:32.250Z,2.83
2023-05-06T00:45:58.813Z,2.77
2023-05-06T00:48:25.518Z,3.70
2023-05-06T00:50:52.310Z,3.38
2023-05-06T00:53:21.652Z,3.05
2023-05-06T00:55:49.626Z,3.67
2023-05-06T00:58:16.145Z,3.53
2023-05-06T01:00:42.921Z,3.33
2023-05-06T01:03:09.495Z,4.05
2023-05-06T01:06:09.032Z,3.95
2023-05-06T01:08:44.418Z,3.88
2023-05-06T01:11:27.920Z,4.00
2023-05-06T01:14:31.468Z,4.00
2023-05-06T01:17:03.639Z,3.95
2023-05-06T01:19:39.152Z,4.47
2023-05-06T01:22:07.464Z,4.90
2023-05-06T01:24:44.644Z,4.87
2023-05-06T01:27:13.543Z,4.50
2023-05-06T01:29:42.294Z,3.83
2023-05-06T01:32:18.044Z,4.60
2023-05-06T01:35:23.280Z,4.80
2023-05-06T01:38:11.146Z,5.07
2023-05-06T01:40:41.758Z,4.60
2023-05-06T01:43:08.903Z,4.53
2023-05-06T01:45:37.514Z,4.00
2023-05-06T01:48:05.293Z,4.57
2023-05-06T01:50:33.054Z,4.00
2023-05-06T01:53:00.900Z,3.53
2023-05-06T01:55:27.552Z,5.78
2023-05-06T01:57:55.238Z,10.70
2023-05-06T02:00:21.977Z,5.25
2023-05-06T02:02:48.510Z,3.93
2023-05-06T02:05:15.134Z,3.95
2023-05-06T02:07:41.744Z,3.28
2023-05-06T02:10:08.962Z,3.90
2023-05-06T02:12:35.493Z,3.60
2023-05-06T02:15:02.091Z,3.87
2023-05-06T02:17:28.577Z,3.33
2023-05-06T02:19:55.231Z,2.42
2023-05-06T02:22:21.692Z,2.78
2023-05-06T02:24:48.156Z,3.80
2023-05-06T02:27:14.642Z,4.27
2023-05-06T02:29:41.175Z,4.10
2023-05-06T02:32:07.720Z,4.47
2023-05-06T02:34:34.248Z,3.88
2023-05-06T02:37:00.811Z,3.90
2023-05-06T02:39:27.301Z,4.20
2023-05-06T02:41:53.989Z,3.97
2023-05-06T02:44:20.515Z,3.63
2023-05-06T02:46:47.099Z,3.72
2023-05-06T02:49:13.589Z,4.00
2023-05-06T02:51:40.077Z,3.97
2023-05-06T02:54:06.635Z,3.70
2023-05-06T02:56:33.056Z,3.95
2023-05-06T02:58:59.613Z,4.30
2023-05-06T03:01:26.110Z,3.55
2023-05-06T03:03:52.730Z,3.90
2023-05-06T03:06:19.276Z,3.83
2023-05-06T03:08:45.896Z,3.90
2023-05-06T03:11:12.441Z,4.00
2023-05-06T03:13:39.082Z,4.18
2023-05-06T03:16:06.080Z,4.20
2023-05-06T03:18:32.550Z,3.90
2023-05-06T03:20:59.071Z,4.40
2023-05-06T03:23:25.731Z,3.92
2023-05-06T03:25:52.231Z,4.32
2023-05-06T03:28:18.690Z,3.97
2023-05-06T03:30:45.309Z,4.00
2023-05-06T03:33:12.246Z,4.50
2023-05-06T03:35:39.930Z,4.97
2023-05-06T03:38:06.864Z,3.70
2023-05-06T03:40:33.587Z,5.23
2023-05-06T03:43:00.024Z,4.90
2023-05-06T03:45:26.977Z,5.40
2023-05-06T03:47:53.518Z,5.30
2023-05-06T03:50:20.041Z,4.32
2023-05-06T03:52:46.542Z,3.77
2023-05-06T03:55:13.054Z,5.00
2023-05-06T03:57:39.959Z,4.93
2023-05-06T04:00:06.932Z,4.95
2023-05-06T04:02:35.901Z,4.93
2023-05-06T04:05:02.826Z,4.80
2023-05-06T04:07:29.968Z,4.22
2023-05-06T04:09:56.612Z,4.70
2023-05-06T04:12:23.071Z,4.90
2023-05-06T04:14:49.583Z,4.90
2023-05-06T04:17:16.115Z,4.57
2023-05-06T04:19:43.077Z,4.38
2023-05-06T04:22:09.592Z,4.13
2023-05-06T04:24:36.061Z,4.43
2023-05-06T04:27:03.295Z,4.43
2023-05-06T04:29:29.903Z,4.10
2023-05-06T04:31:56.898Z,3.53
2023-05-06T04:34:25.207Z,3.33
2023-05-06T04:36:54.239Z,3.67
2023-05-06T04:39:20.838Z,3.58
2023-05-06T04:41:47.965Z,3.73
2023-05-06T04:44:14.497Z,4.25
2023-05-06T04:46:41.773Z,3.97
2023-05-06T04:49:08.681Z,5.53
2023-05-06T04:51:35.530Z,5.60
2023-05-06T04:54:02.119Z,5.70
2023-05-06T04:56:28.573Z,5.43
2023-05-06T04:58:55.072Z,5.47
2023-05-06T05:01:21.579Z,5.78
2023-05-06T05:03:48.120Z,5.55
2023-05-06T05:06:14.720Z,6.87
2023-05-06T05:08:41.747Z,6.15
2023-05-06T05:11:08.657Z,6.55
2023-05-06T05:13:35.526Z,6.72
2023-05-06T05:16:02.071Z,6.88
2023-05-06T05:18:31.602Z,6.73
2023-05-06T05:20:58.192Z,7.72
2023-05-06T05:23:24.754Z,7.40
2023-05-06T05:25:51.352Z,7.35
2023-05-06T05:28:17.927Z,8.45
2023-05-06T05:30:44.398Z,7.63
2023-05-06T05:33:11.250Z,7.40
2023-05-06T05:35:37.942Z,7.47
2023-05-06T05:38:04.475Z,7.43
2023-05-06T05:40:31.072Z,7.18
2023-05-06T05:43:00.388Z,7.17
2023-05-06T05:45:26.938Z,8.00
2023-05-06T05:47:54.165Z,7.75
2023-05-06T05:50:20.924Z,8.18
2023-05-06T05:52:47.413Z,8.18
2023-05-06T05:55:13.929Z,7.97
2023-05-06T05:57:40.562Z,7.82
2023-05-06T06:00:08.283Z,8.23
2023-05-06T06:02:34.959Z,8.80
2023-05-06T06:05:01.661Z,9.55
2023-05-06T06:07:28.451Z,10.23
2023-05-06T06:09:54.924Z,9.95
2023-05-06T06:12:21.466Z,9.93
2023-05-06T06:14:48.476Z,9.98
2023-05-06T06:17:15.674Z,10.25
2023-05-06T06:19:42.416Z,9.90
2023-05-06T06:22:08.868Z,10.35
2023-05-06T06:24:35.742Z,9.90
2023-05-06T06:27:02.454Z,10.45
2023-05-06T06:29:29.013Z,10.45
2023-05-06T06:31:58.683Z,10.03
2023-05-06T06:34:25.394Z,10.80
2023-05-06T06:36:51.878Z,10.68
2023-05-06T06:39:18.371Z,10.23
2023-05-06T06:41:44.874Z,10.18
2023-05-06T06:44:11.538Z,10.70
2023-05-06T06:46:39.137Z,10.38
2023-05-06T06:49:05.970Z,10.57
2023-05-06T06:51:32.640Z,9.95
2023-05-06T06:53:59.212Z,9.93
2023-05-06T06:56:25.889Z,10.57
2023-05-06T06:58:53.372Z,10.45
2023-05-06T07:01:20.222Z,10.98
2023-05-06T07:03:46.784Z,10.70
2023-05-06T07:06:13.391Z,10.75
2023-05-06T07:08:39.949Z,11.10
2023-05-06T07:11:06.419Z,10.82
2023-05-06T07:13:32.945Z,11.80
2023-05-06T07:15:59.458Z,12.38
2023-05-06T07:18:25.921Z,11.60
2023-05-06T07:20:52.660Z,11.60
2023-05-06T07:23:19.152Z,11.85
2023-05-06T07:25:45.630Z,10.75
2023-05-06T07:28:12.238Z,10.95
2023-05-06T07:30:39.059Z,11.77
2023-05-06T07:33:11.820Z,11.97
2023-05-06T07:35:38.401Z,11.77
2023-05-06T07:38:07.402Z,11.80
2023-05-06T07:40:35.567Z,11.77
2023-05-06T07:43:02.689Z,12.05
2023-05-06T07:45:31.661Z,12.30
2023-05-06T07:47:58.362Z,13.30
2023-05-06T07:50:24.998Z,13.15
2023-05-06T07:52:51.762Z,13.43
2023-05-06T07:55:18.442Z,12.30
2023-05-06T07:57:45.070Z,12.07
2023-05-06T08:00:12.863Z,13.05
2023-05-06T08:02:44.320Z,13.30
2023-05-06T08:05:11.681Z,12.73
2023-05-06T08:07:42.283Z,12.77
2023-05-06T08:10:10.096Z,13.17
2023-05-06T08:12:36.961Z,12.93
2023-05-06T08:15:03.864Z,12.85
2023-05-06T08:17:30.487Z,12.55
2023-05-06T08:20:01.313Z,12.07
2023-05-06T08:23:16.392Z,12.23
2023-05-06T08:25:43.264Z,11.63
2023-05-06T08:28:12.139Z,12.30
2023-05-06T08:30:38.828Z,12.63
2023-05-06T08:33:07.653Z,12.75
2023-05-06T08:35:34.417Z,13.27
2023-05-06T08:38:54.204Z,13.07
2023-05-06T08:47:33.518Z,12.32
2023-05-06T08:50:01.385Z,12.93
2023-05-06T08:52:29.105Z,13.55
2023-05-06T08:55:01.418Z,12.27
2023-05-06T08:57:30.769Z,12.90
2023-05-06T08:59:58.088Z,13.02
2023-05-06T09:02:25.759Z,12.17
2023-05-06T09:04:53.928Z,12.35
2023-05-06T09:07:21.557Z,12.35
2023-05-06T09:09:48.938Z,13.98
2023-05-06T09:12:15.894Z,15.43
2023-05-06T09:14:42.780Z,16.33
2023-05-06T09:17:24.218Z,20.48
2023-05-06T09:19:53.060Z,20.83
2023-05-06T09:22:40.122Z,16.60
2023-05-06T09:25:07.350Z,17.42
2023-05-06T09:27:36.708Z,14.60
2023-05-06T09:30:05.689Z,11.95
2023-05-06T09:32:34.007Z,12.35
2023-05-06T09:35:01.647Z,11.77
2023-05-06T09:37:28.541Z,11.00
2023-05-06T09:39:56.887Z,10.77
2023-05-06T09:42:28.772Z,11.18
2023-05-06T09:45:07.408Z,12.25
2023-05-06T09:47:35.153Z,12.35
2023-05-06T09:50:05.354Z,12.20
2023-05-06T09:52:31.960Z,12.07
2023-05-06T09:54:59.322Z,12.93
2023-05-06T09:57:26.699Z,12.30
2023-05-06T09:59:54.154Z,12.88
2023-05-06T10:02:23.289Z,12.10
2023-05-06T10:04:51.183Z,12.80
2023-05-06T10:07:22.819Z,11.85
2023-05-06T10:09:51.404Z,12.20
2023-05-06T10:12:20.142Z,11.77
2023-05-06T10:14:47.395Z,11.98
2023-05-06T10:17:14.376Z,8.60
2023-05-06T10:19:44.997Z,8.38
2023-05-06T10:22:22.433Z,8.82
2023-05-06T10:24:59.563Z,9.50
2023-05-06T10:27:28.504Z,10.75
2023-05-06T10:29:59.604Z,10.03
2023-05-06T10:32:31.230Z,10.40
2023-05-06T10:35:09.604Z,8.45
2023-05-06T10:37:38.727Z,9.55
2023-05-06T10:40:05.889Z,9.60
2023-05-06T10:42:35.716Z,7.30
2023-05-06T10:45:04.326Z,5.80
2023-05-06T10:47:52.742Z,6.75
2023-05-06T10:50:21.649Z,5.50
2023-05-06T10:52:51.610Z,5.85
2023-05-06T10:55:27.447Z,6.37
2023-05-06T10:57:56.596Z,6.63
2023-05-06T11:00:23.616Z,5.47
2023-05-06T11:02:57.461Z,4.93
2023-05-06T11:05:24.320Z,5.05
2023-05-06T11:07:52.076Z,4.30
2023-05-06T11:10:34.295Z,4.53
2023-05-06T11:13:22.297Z,3.42
2023-05-06T11:15:57.200Z,3.75
2023-05-06T11:18:27.681Z,5.00
2023-05-06T11:21:00.864Z,5.10
2023-05-06T11:23:42.987Z,5.30
2023-05-06T11:26:11.429Z,5.25
2023-05-06T11:28:38.920Z,5.38
2023-05-06T11:31:05.875Z,5.55
2023-05-06T11:33:36.125Z,5.30
2023-05-06T11:36:04.539Z,5.60
2023-05-06T11:38:49.413Z,4.45
2023-05-06T11:41:17.065Z,4.85
2023-05-06T11:43:47.281Z,5.47
2023-05-06T11:46:13.950Z,6.07
2023-05-06T11:48:40.435Z,7.10
2023-05-06T11:51:08.226Z,8.32
2023-05-06T11:53:34.764Z,4.80
2023-05-06T11:56:46.338Z,4.15
2023-05-06T11:59:16.241Z,4.10
2023-05-06T12:01:45.839Z,3.95
2023-05-06T12:04:13.308Z,5.78
2023-05-06T12:06:40.276Z,5.50
2023-05-06T12:09:10.919Z,6.28
2023-05-06T12:11:38.979Z,6.40
2023-05-06T12:14:07.942Z,6.55
2023-05-06T12:16:36.020Z,5.10
2023-05-06T12:19:03.500Z,5.10
2023-05-06T12:21:33.125Z,4.65
2023-05-06T12:24:01.453Z,4.73
2023-05-06T12:26:28.627Z,5.22
2023-05-06T12:29:17.137Z,4.13
2023-05-06T12:31:47.703Z,4.80
2023-05-06T12:34:16.216Z,4.47
2023-05-06T12:36:45.097Z,4.67
2023-05-06T12:39:12.623Z,4.82
2023-05-06T12:41:44.582Z,7.47
2023-05-06T12:44:31.695Z,7.40
2023-05-06T12:46:59.629Z,8.20
2023-05-06T12:49:26.280Z,8.10
2023-05-06T12:52:10.252Z,8.05
2023-05-06T12:54:37.386Z,7.65
2023-05-06T12:57:05.355Z,7.95
2023-05-06T12:59:32.354Z,8.15
2023-05-06T13:01:59.256Z,8.50
2023-05-06T13:04:26.348Z,8.70
2023-05-06T13:06:53.001Z,8.82
2023-05-06T13:09:19.655Z,7.78
2023-05-06T13:11:46.356Z,7.65
2023-05-06T13:14:12.945Z,7.33
2023-05-06T13:16:40.050Z,7.47
2023-05-06T13:19:07.233Z,7.32
2023-05-06T13:21:36.615Z,5.72
2023-05-06T13:24:03.592Z,6.57
2023-05-06T13:26:30.161Z,6.40
2023-05-06T13:28:56.701Z,6.20
2023-05-06T13:31:24.932Z,6.80
2023-05-06T13:33:51.416Z,7.35
2023-05-06T13:36:17.947Z,5.85
2023-05-06T13:38:44.408Z,6.20
2023-05-06T13:41:10.886Z,6.65
2023-05-06T13:43:37.414Z,4.00
2023-05-06T13:46:04.051Z,3.65
2023-05-06T13:48:30.626Z,3.60
2023-05-06T13:50:57.122Z,2.40
2023-05-06T13:53:23.556Z,4.20
2023-05-06T13:55:50.005Z,3.53
2023-05-06T13:58:17.198Z,2.95
2023-05-06T14:00:43.741Z,2.63
2023-05-06T14:03:10.384Z,3.13
2023-05-06T14:05:36.938Z,2.80
2023-05-06T14:08:03.435Z,2.63
2023-05-06T14:10:29.939Z,2.60
2023-05-06T14:12:56.500Z,2.75
2023-05-06T14:15:22.978Z,2.23
2023-05-06T14:17:49.709Z,2.30
2023-05-06T14:20:18.252Z,2.40
2023-05-06T14:22:44.775Z,2.45
2023-05-06T14:25:11.813Z,1.90
2023-05-06T14:27:38.576Z,2.03
2023-05-06T14:30:08.549Z,1.77
2023-05-06T14:32:36.373Z,1.67
2023-05-06T14:35:03.142Z,1.38
2023-05-06T14:37:29.844Z,1.60
2023-05-06T14:39:57.286Z,1.50
2023-05-06T14:42:23.822Z,1.98
2023-05-06T14:44:50.724Z,1.67
2023-05-06T14:47:17.509Z,1.50
2023-05-06T14:49:44.142Z,1.70
2023-05-06T14:52:10.689Z,1.73
2023-05-06T14:54:42.150Z,1.42
2023-05-06T14:57:09.471Z,1.88
2023-05-06T14:59:36.321Z,2.10
2023-05-06T15:02:07.794Z,1.88
2023-05-06T15:04:34.681Z,1.50
2023-05-06T15:07:01.366Z,1.80
2023-05-06T15:09:27.853Z,2.00
2023-05-06T15:11:54.519Z,1.52
2023-05-06T15:14:21.064Z,1.60
2023-05-06T15:16:47.594Z,1.67
2023-05-06T15:19:14.064Z,1.77
2023-05-06T15:21:40.692Z,1.65
2023-05-06T15:24:07.917Z,1.77
2023-05-06T15:26:34.514Z,3.85
2023-05-06T15:29:00.995Z,4.00
2023-05-06T15:31:27.485Z,2.80
2023-05-06T15:33:53.993Z,2.28
2023-05-06T15:36:20.546Z,2.10
2023-05-06T15:38:53.173Z,3.67
2023-05-06T15:41:19.779Z,3.90
2023-05-06T15:43:46.392Z,2.55
2023-05-06T15:46:12.931Z,1.80
2023-05-06T15:48:39.403Z,1.98
2023-05-06T15:51:06.228Z,2.03
2023-05-06T15:53:32.771Z,1.80
2023-05-06T15:58:28.600Z,1.85
2023-05-06T16:00:55.111Z,2.20
2023-05-06T16:03:21.755Z,2.42
2023-05-06T16:05:48.511Z,1.70
2023-05-06T16:08:14.997Z,1.77
2023-05-06T16:10:41.483Z,1.90
2023-05-06T16:13:08.104Z,2.00
2023-05-06T16:15:35.404Z,1.65
2023-05-06T16:18:02.179Z,1.90
2023-05-06T16:20:29.640Z,2.38
2023-05-06T16:22:56.086Z,2.00
2023-05-06T16:25:22.774Z,2.13
2023-05-06T16:27:49.329Z,2.03
2023-05-06T16:30:15.948Z,1.77
2023-05-06T16:32:42.622Z,2.00
2023-05-06T16:35:09.683Z,1.65
2023-05-06T16:37:36.457Z,1.90
2023-05-06T16:40:04.195Z,1.80
2023-05-06T16:42:30.838Z,1.50
2023-05-06T16:44:57.366Z,1.80
2023-05-06T16:47:24.417Z,1.90
2023-05-06T16:49:51.076Z,1.67
2023-05-06T16:52:18.334Z,1.65
2023-05-06T16:54:45.060Z,1.60
2023-05-06T16:57:11.786Z,2.03
2023-05-06T16:59:38.279Z,1.77
2023-05-06T17:02:04.852Z,1.80
2023-05-06T17:04:31.379Z,1.60
2023-05-06T17:06:57.950Z,1.87
2023-05-06T17:09:24.404Z,1.70
2023-05-06T17:11:51.032Z,1.60
2023-05-06T17:14:17.516Z,1.30
2023-05-06T17:16:45.138Z,1.33
2023-05-06T17:19:12.147Z,1.37
2023-05-06T17:21:38.810Z,1.50
2023-05-06T17:24:06.547Z,1.42
2023-05-06T17:26:34.401Z,1.20
2023-05-06T17:29:01.383Z,1.23
2023-05-06T17:31:28.044Z,1.10
2023-05-06T17:33:54.669Z,1.13
2023-05-06T17:36:21.932Z,1.10
2023-05-06T17:38:49.162Z,1.38
2023-05-06T17:41:15.939Z,1.30
2023-05-06T17:43:43.390Z,1.43
2023-05-06T17:46:09.866Z,1.70
2023-05-06T17:48:36.398Z,1.70
2023-05-06T17:51:03.299Z,1.50
2023-05-06T17:53:29.924Z,1.35
2023-05-06T17:55:56.387Z,1.73
2023-05-06T17:58:23.364Z,1.70
2023-05-06T18:00:49.862Z,2.10
2023-05-06T18:03:16.449Z,1.85
2023-05-06T18:05:43.069Z,2.15
2023-05-06T18:08:09.717Z,2.20
2023-05-06T18:10:36.373Z,2.63
2023-05-06T18:13:03.704Z,2.70
2023-05-06T18:15:30.438Z,2.83
2023-05-06T18:17:57.134Z,2.85
2023-05-06T18:20:23.780Z,3.00
2023-05-06T18:22:50.383Z,3.53
2023-05-06T18:25:16.874Z,3.53
2023-05-06T18:27:43.520Z,3.72
2023-05-06T18:30:10.446Z,4.28
2023-05-06T18:32:37.050Z,4.17
2023-05-06T18:40:58.767Z,5.22
2023-05-06T18:43:30.174Z,5.35
2023-05-06T18:45:58.491Z,4.60
2023-05-06T18:51:40.931Z,5.45
2023-05-06T18:54:11.233Z,5.63
2023-05-06T18:56:38.820Z,5.65
2023-05-06T18:59:05.696Z,5.87
2023-05-06T19:01:32.541Z,5.65
2023-05-06T19:04:03.773Z,6.43
2023-05-06T19:06:34.911Z,5.65
2023-05-06T19:09:02.943Z,6.25
2023-05-06T19:11:36.985Z,6.00
2023-05-06T19:14:15.577Z,6.15
2023-05-06T19:16:51.083Z,6.13
2023-05-06T19:19:24.012Z,6.18
2023-05-06T19:22:17.420Z,6.50
2023-05-06T19:24:45.353Z,6.23
2023-05-06T19:27:32.913Z,6.72
2023-05-06T19:30:03.947Z,7.03
2023-05-06T19:32:45.667Z,6.70
2023-05-06T19:35:14.707Z,6.53
2023-05-06T19:37:43.679Z,6.37
2023-05-06T19:40:13.033Z,7.05
2023-05-06T19:42:49.450Z,7.18
2023-05-06T19:45:19.432Z,7.45
2023-05-06T19:47:58.360Z,7.10
2023-05-06T19:54:33.923Z,7.10
2023-05-06T19:57:00.695Z,6.93
2023-05-06T19:59:27.664Z,7.57
2023-05-06T20:01:54.618Z,7.80
2023-05-06T20:04:21.146Z,7.27
2023-05-06T20:06:47.628Z,7.97
2023-05-06T20:09:14.236Z,8.23
2023-05-06T20:11:41.139Z,7.90
2023-05-06T20:14:07.711Z,7.82
2023-05-06T20:16:34.257Z,7.47
2023-05-06T20:19:00.764Z,7.90
2023-05-06T20:21:27.314Z,7.55
2023-05-06T20:23:53.875Z,8.40
2023-05-06T20:26:21.003Z,7.70
2023-05-06T20:28:48.334Z,8.83
2023-05-06T20:31:15.101Z,8.63
2023-05-06T20:33:41.725Z,9.38
2023-05-06T20:36:08.272Z,8.73
2023-05-06T20:38:34.879Z,8.57
2023-05-06T20:41:02.901Z,9.93
2023-05-06T20:43:35.053Z,9.60
2023-05-06T20:46:01.620Z,8.93
2023-05-06T20:48:28.204Z,9.00
2023-05-06T20:50:56.981Z,8.98
2023-05-06T20:53:24.102Z,9.37
2023-05-06T20:55:51.006Z,8.95
2023-05-06T20:58:17.489Z,8.85
2023-05-06T21:00:44.088Z,9.40
2023-05-06T21:03:10.780Z,9.55
2023-05-06T21:05:37.313Z,8.77
2023-05-06T21:08:04.077Z,7.88
2023-05-06T21:10:30.882Z,8.38
2023-05-06T21:12:57.452Z,8.95
2023-05-06T21:15:23.906Z,9.27
2023-05-06T21:17:50.633Z,9.17
2023-05-06T21:20:17.306Z,9.68
2023-05-06T21:22:43.833Z,8.77
2023-05-06T21:25:13.110Z,8.23
2023-05-06T21:27:39.861Z,8.73
2023-05-06T21:30:07.046Z,8.43
2023-05-06T21:32:33.558Z,8.75
2023-05-06T21:35:03.738Z,8.40
2023-05-06T21:37:30.567Z,8.35
2023-05-06T21:39:57.088Z,7.88
2023-05-06T21:42:23.657Z,7.93
2023-05-06T21:44:50.157Z,8.27
2023-05-06T21:47:16.673Z,8.00
2023-05-06T21:49:43.149Z,8.63
2023-05-06T21:52:09.653Z,7.85
2023-05-06T21:54:36.166Z,7.57
2023-05-06T21:57:02.711Z,7.47
2023-05-06T21:59:29.179Z,7.78
2023-05-06T22:01:55.894Z,7.65
2023-05-06T22:04:22.463Z,8.15
2023-05-06T22:06:48.937Z,8.30
2023-05-06T22:09:15.631Z,7.50
2023-05-06T22:11:42.136Z,7.30
2023-05-06T22:14:09.437Z,7.07
2023-05-06T22:16:37.747Z,7.47
2023-05-06T22:19:05.526Z,8.17
2023-05-06T22:21:34.519Z,7.28
2023-05-06T22:24:01.507Z,7.07
2023-05-06T22:26:28.225Z,7.45
2023-05-06T22:28:57.758Z,7.10
2023-05-06T22:31:24.977Z,6.87
2023-05-06T22:33:55.486Z,7.30
2023-05-06T22:36:22.244Z,7.28
2023-05-06T22:38:48.763Z,7.50
2023-05-06T22:41:15.399Z,7.25
2023-05-06T22:43:41.892Z,7.73
2023-05-06T22:46:08.463Z,7.85
2023-05-06T22:48:34.911Z,7.88
2023-05-06T22:51:01.788Z,7.95
2023-05-06T22:53:28.412Z,7.72
2023-05-06T22:55:54.838Z,7.30
2023-05-06T22:58:21.323Z,8.15
2023-05-06T23:00:48.008Z,9.13
2023-05-06T23:03:17.912Z,8.93
2023-05-06T23:05:44.511Z,8.70
2023-05-06T23:08:11.114Z,8.30
2023-05-06T23:10:37.643Z,9.00
2023-05-06T23:13:04.208Z,7.68
2023-05-06T23:15:30.947Z,8.80
2023-05-06T23:17:57.576Z,8.82
2023-05-06T23:20:24.372Z,9.07
2023-05-06T23:22:50.919Z,8.40
2023-05-06T23:25:17.703Z,8.70
2023-05-06T23:27:44.560Z,8.30
2023-05-06T23:30:11.590Z,7.88
2023-05-06T23:32:38.610Z,7.60
2023-05-06T23:35:07.418Z,7.18
2023-05-06T23:37:34.166Z,6.90
2023-05-06T23:40:00.806Z,7.18
2023-05-06T23:42:27.667Z,6.55
2023-05-06T23:44:54.206Z,7.10
2023-05-06T23:47:20.822Z,7.35
2023-05-06T23:49:47.376Z,6.90
2023-05-06T23:52:13.847Z,7.22
2023-05-06T23:54:40.312Z,6.85
2023-05-06T23:57:06.840Z,6.50
2023-05-06T23:59:33.371Z,6.53
